createdAt,value
2022-08-25T00:01:54.574Z,90.50
2022-08-25T00:04:00.044Z,90.30
2022-08-25T00:06:09.291Z,90.40
2022-08-25T00:08:13.886Z,90.60
2022-08-25T00:10:18.278Z,90.70
2022-08-25T00:12:23.053Z,90.60
2022-08-25T00:14:30.715Z,90.80
2022-08-25T00:16:36.535Z,90.70
2022-08-25T00:18:41.011Z,90.80
2022-08-25T00:20:48.782Z,91.00
2022-08-25T00:22:53.896Z,90.70
2022-08-25T00:24:58.251Z,90.70
2022-08-25T00:27:04.590Z,90.80
2022-08-25T00:29:10.877Z,90.60
2022-08-25T00:31:17.867Z,90.50
2022-08-25T00:33:24.095Z,90.50
2022-08-25T00:35:28.448Z,90.60
2022-08-25T00:37:33.262Z,90.50
2022-08-25T00:39:38.372Z,90.60
2022-08-25T00:41:44.809Z,90.50
2022-08-25T00:43:53.676Z,90.80
2022-08-25T00:45:58.239Z,90.60
2022-08-25T00:48:03.831Z,90.70
2022-08-25T00:50:11.674Z,90.80
2022-08-25T00:52:19.234Z,90.80
2022-08-25T00:54:27.407Z,90.80
2022-08-25T00:56:32.690Z,90.60
2022-08-25T00:58:38.007Z,90.40
2022-08-25T01:00:45.423Z,90.50
2022-08-25T01:02:50.822Z,90.50
2022-08-25T01:04:55.421Z,90.50
2022-08-25T01:07:03.421Z,90.30
2022-08-25T01:09:08.283Z,90.50
2022-08-25T01:11:13.750Z,90.40
2022-08-25T01:13:22.034Z,90.50
2022-08-25T01:15:26.436Z,90.40
2022-08-25T01:17:36.916Z,90.20
2022-08-25T01:19:41.411Z,90.30
2022-08-25T01:21:51.318Z,90.30
2022-08-25T01:23:58.388Z,90.50
2022-08-25T01:26:09.593Z,90.40
2022-08-25T01:28:14.221Z,90.40
2022-08-25T01:30:19.348Z,90.40
2022-08-25T01:32:23.965Z,90.40
2022-08-25T01:34:30.869Z,90.20
2022-08-25T01:36:36.114Z,90.30
2022-08-25T01:38:41.967Z,90.00
2022-08-25T01:40:47.044Z,90.30
2022-08-25T01:43:00.386Z,90.20
2022-08-25T01:45:06.330Z,90.30
2022-08-25T01:47:11.382Z,90.40
2022-08-25T01:49:15.946Z,90.30
2022-08-25T01:51:25.018Z,90.20
2022-08-25T01:53:33.533Z,90.50
2022-08-25T01:55:54.256Z,90.50
2022-08-25T01:58:00.378Z,90.40
2022-08-25T02:00:07.311Z,90.20
2022-08-25T02:02:18.238Z,90.30
2022-08-25T02:04:22.974Z,90.20
2022-08-25T02:06:32.325Z,90.20
2022-08-25T02:08:38.439Z,90.40
2022-08-25T02:10:44.160Z,90.70
2022-08-25T02:12:48.530Z,90.70
2022-08-25T02:14:52.840Z,90.30
2022-08-25T02:16:58.062Z,90.60
2022-08-25T02:19:03.275Z,90.50
2022-08-25T02:21:07.755Z,90.40
2022-08-25T02:23:13.056Z,90.60
2022-08-25T02:25:17.729Z,90.40
2022-08-25T02:27:24.373Z,90.80
2022-08-25T02:29:28.863Z,90.80
2022-08-25T02:31:33.407Z,90.80
2022-08-25T02:33:37.810Z,91.00
2022-08-25T02:35:42.588Z,90.90
2022-08-25T02:37:46.907Z,90.90
2022-08-25T02:39:51.346Z,90.90
2022-08-25T02:41:56.187Z,90.70
2022-08-25T02:44:04.222Z,90.40
2022-08-25T02:46:08.723Z,90.00
2022-08-25T02:48:14.411Z,90.00
2022-08-25T02:50:18.895Z,89.50
2022-08-25T02:52:23.276Z,89.10
2022-08-25T02:54:28.267Z,88.70
2022-08-25T02:56:33.840Z,88.70
2022-08-25T02:58:40.393Z,88.40
2022-08-25T03:00:46.873Z,88.90
2022-08-25T03:02:51.329Z,88.60
2022-08-25T03:04:56.834Z,88.40
2022-08-25T03:07:01.446Z,88.40
2022-08-25T03:09:06.240Z,88.40
2022-08-25T03:11:11.441Z,88.00
2022-08-25T03:13:16.902Z,88.40
2022-08-25T03:15:21.595Z,88.50
2022-08-25T03:17:27.479Z,88.70
2022-08-25T03:19:34.846Z,88.60
2022-08-25T03:21:39.679Z,88.10
2022-08-25T03:23:44.841Z,88.00
2022-08-25T03:26:06.653Z,87.50
2022-08-25T03:28:11.256Z,87.60
2022-08-25T03:30:16.694Z,86.80
2022-08-25T03:32:21.175Z,86.90
2022-08-25T03:34:29.374Z,87.20
2022-08-25T03:36:33.948Z,87.50
2022-08-25T03:38:38.519Z,87.30
2022-08-25T03:40:43.475Z,87.80
2022-08-25T03:42:48.514Z,87.40
2022-08-25T03:44:53.224Z,87.30
2022-08-25T03:46:57.624Z,87.70
2022-08-25T03:49:03.578Z,88.40
2022-08-25T03:51:09.679Z,88.30
2022-08-25T03:53:14.252Z,87.10
2022-08-25T03:55:18.841Z,86.90
2022-08-25T03:57:23.265Z,86.80
2022-08-25T03:59:29.049Z,86.60
2022-08-25T04:01:33.665Z,86.00
2022-08-25T04:03:38.247Z,85.60
2022-08-25T04:05:43.064Z,85.40
2022-08-25T04:07:49.050Z,84.50
2022-08-25T04:09:56.379Z,84.60
2022-08-25T04:12:00.927Z,84.80
2022-08-25T04:14:06.061Z,84.50
2022-08-25T04:16:14.515Z,84.90
2022-08-25T04:18:19.003Z,85.20
2022-08-25T04:20:23.408Z,84.70
2022-08-25T04:22:29.885Z,83.90
2022-08-25T04:24:35.968Z,83.50
2022-08-25T04:26:43.580Z,83.90
2022-08-25T04:28:49.686Z,82.80
2022-08-25T04:30:54.356Z,82.60
2022-08-25T04:32:58.700Z,82.50
2022-08-25T04:35:02.982Z,81.60
2022-08-25T04:37:07.892Z,81.00
2022-08-25T04:39:12.292Z,80.70
2022-08-25T04:41:21.545Z,79.80
2022-08-25T04:43:25.910Z,79.70
2022-08-25T04:45:30.621Z,80.30
2022-08-25T04:47:38.969Z,80.50
2022-08-25T04:49:43.946Z,80.00
2022-08-25T04:51:49.788Z,78.40
2022-08-25T04:53:54.496Z,77.90
2022-08-25T04:56:03.553Z,77.50
2022-08-25T04:58:14.627Z,77.30
2022-08-25T05:00:21.221Z,77.00
2022-08-25T05:02:26.170Z,76.40
2022-08-25T05:04:30.608Z,75.60
2022-08-25T05:06:35.716Z,75.10
2022-08-25T05:08:40.090Z,74.90
2022-08-25T05:10:44.442Z,74.70
2022-08-25T05:12:48.943Z,75.30
2022-08-25T05:14:55.501Z,74.90
2022-08-25T05:16:59.910Z,74.90
2022-08-25T05:19:04.956Z,74.60
2022-08-25T05:21:12.935Z,75.10
2022-08-25T05:23:17.578Z,74.10
2022-08-25T05:25:21.944Z,74.30
2022-08-25T05:27:26.410Z,73.50
2022-08-25T05:29:31.259Z,73.20
2022-08-25T05:31:41.760Z,72.90
2022-08-25T05:33:47.923Z,73.00
2022-08-25T05:35:52.440Z,73.60
2022-08-25T05:37:57.596Z,72.60
2022-08-25T05:40:02.332Z,72.00
2022-08-25T05:42:08.622Z,72.40
2022-08-25T05:44:15.121Z,72.30
2022-08-25T05:46:23.293Z,72.70
2022-08-25T05:48:30.169Z,72.40
2022-08-25T05:50:34.599Z,72.30
2022-08-25T05:52:39.355Z,73.10
2022-08-25T05:54:43.620Z,71.80
2022-08-25T05:56:47.838Z,72.00
2022-08-25T05:58:52.184Z,71.50
2022-08-25T06:00:57.763Z,71.80
2022-08-25T06:03:01.062Z,71.60
2022-08-25T06:05:08.207Z,72.00
2022-08-25T06:07:14.273Z,72.00
2022-08-25T06:09:18.668Z,71.20
2022-08-25T06:11:23.038Z,71.60
2022-08-25T06:13:28.874Z,70.40
2022-08-25T06:15:33.839Z,71.30
2022-08-25T06:17:40.923Z,69.70
2022-08-25T06:19:46.160Z,69.60
2022-08-25T06:21:55.751Z,69.70
2022-08-25T06:24:00.268Z,69.00
2022-08-25T06:26:04.664Z,69.20
2022-08-25T06:28:09.287Z,68.90
2022-08-25T06:30:17.106Z,67.10
2022-08-25T06:32:23.190Z,68.50
2022-08-25T06:34:27.584Z,68.60
2022-08-25T06:36:31.864Z,68.40
2022-08-25T06:38:38.094Z,68.30
2022-08-25T06:40:42.525Z,68.70
2022-08-25T06:42:50.515Z,67.60
2022-08-25T06:44:55.682Z,67.10
2022-08-25T06:47:00.093Z,66.90
2022-08-25T06:49:05.991Z,67.00
2022-08-25T06:51:13.957Z,66.90
2022-08-25T06:53:19.807Z,67.80
2022-08-25T06:55:25.408Z,67.50
2022-08-25T06:57:29.674Z,66.20
2022-08-25T06:59:35.936Z,66.70
2022-08-25T07:01:40.368Z,66.40
2022-08-25T07:03:45.167Z,66.30
2022-08-25T07:07:56.246Z,64.50
2022-08-25T07:10:00.760Z,65.90
2022-08-25T07:12:05.866Z,65.60
2022-08-25T07:14:13.655Z,64.90
2022-08-25T07:16:20.556Z,65.10
2022-08-25T07:18:26.527Z,63.70
2022-08-25T07:20:31.648Z,62.30
2022-08-25T07:22:36.575Z,61.90
2022-08-25T07:24:42.654Z,61.40
2022-08-25T07:26:47.728Z,62.00
2022-08-25T07:28:52.524Z,61.90
2022-08-25T07:31:01.134Z,61.80
2022-08-25T07:35:37.402Z,61.60
2022-08-25T07:37:49.185Z,61.10
2022-08-25T07:39:55.671Z,60.80
2022-08-25T07:42:02.259Z,61.00
2022-08-25T07:44:06.657Z,61.00
2022-08-25T07:46:11.189Z,61.70
2022-08-25T07:48:17.783Z,60.60
2022-08-25T07:50:22.984Z,60.90
2022-08-25T07:52:28.261Z,60.60
2022-08-25T07:54:34.259Z,60.50
2022-08-25T07:56:43.143Z,60.40
2022-08-25T07:58:49.210Z,60.00
2022-08-25T08:00:54.369Z,60.00
2022-08-25T08:02:59.589Z,60.00
2022-08-25T08:05:04.339Z,60.80
2022-08-25T08:07:14.241Z,60.70
2022-08-25T08:09:18.671Z,59.50
2022-08-25T08:11:26.617Z,59.70
2022-08-25T08:13:35.721Z,60.20
2022-08-25T08:15:44.719Z,60.30
2022-08-25T08:17:49.206Z,60.50
2022-08-25T08:19:54.955Z,59.80
2022-08-25T08:22:02.366Z,59.60
2022-08-25T08:24:24.861Z,59.50
2022-08-25T08:26:55.423Z,58.80
2022-08-25T08:28:58.847Z,58.80
2022-08-25T08:31:03.451Z,59.10
2022-08-25T08:33:11.746Z,59.50
2022-08-25T08:35:19.040Z,58.80
2022-08-25T08:37:24.159Z,58.90
2022-08-25T08:39:29.744Z,58.00
2022-08-25T08:42:12.499Z,57.30
2022-08-25T08:44:26.363Z,56.60
2022-08-25T08:46:38.995Z,57.10
2022-08-25T08:48:58.381Z,56.90
2022-08-25T08:51:17.352Z,56.50
2022-08-25T08:53:33.984Z,56.80
2022-08-25T08:55:42.768Z,56.00
2022-08-25T08:57:50.922Z,56.00
2022-08-25T09:00:01.419Z,56.00
2022-08-25T09:02:16.236Z,56.40
2022-08-25T09:04:46.246Z,56.00
2022-08-25T09:06:51.840Z,55.20
2022-08-25T09:08:59.486Z,55.40
2022-08-25T09:11:10.464Z,55.80
2022-08-25T09:13:20.592Z,55.30
2022-08-25T09:15:58.753Z,55.00
2022-08-25T09:18:12.532Z,54.30
2022-08-25T09:20:38.963Z,54.80
2022-08-25T09:22:55.911Z,53.70
2022-08-25T09:25:09.025Z,55.10
2022-08-25T09:27:25.419Z,54.20
2022-08-25T09:29:46.401Z,54.40
2022-08-25T09:31:52.289Z,54.10
2022-08-25T09:33:58.726Z,54.40
2022-08-25T09:36:06.278Z,54.10
2022-08-25T09:38:14.189Z,53.60
2022-08-25T09:40:18.997Z,54.30
2022-08-25T09:42:44.713Z,54.30
2022-08-25T09:44:50.438Z,53.90
2022-08-25T09:47:03.883Z,53.70
2022-08-25T09:49:16.742Z,53.70
2022-08-25T09:51:25.432Z,53.80
2022-08-25T09:53:33.726Z,53.80
2022-08-25T09:55:42.407Z,53.10
2022-08-25T09:57:49.548Z,53.50
2022-08-25T09:59:57.800Z,53.10
2022-08-25T10:02:06.018Z,53.60
2022-08-25T10:04:17.729Z,53.10
2022-08-25T10:06:27.110Z,52.90
2022-08-25T10:08:36.325Z,53.30
2022-08-25T10:10:45.546Z,52.50
2022-08-25T10:12:51.445Z,51.30
2022-08-25T10:15:29.946Z,51.20
2022-08-25T10:17:36.495Z,51.30
2022-08-25T10:19:41.481Z,51.20
2022-08-25T10:21:45.752Z,50.70
2022-08-25T10:23:55.900Z,50.40
2022-08-25T10:26:04.688Z,50.90
2022-08-25T10:28:17.027Z,50.90
2022-08-25T10:30:27.235Z,50.40
2022-08-25T10:32:46.850Z,50.50
2022-08-25T10:34:54.864Z,50.30
2022-08-25T10:37:09.222Z,50.40
2022-08-25T10:39:31.742Z,49.80
2022-08-25T10:41:48.011Z,49.70
2022-08-25T10:44:03.665Z,50.10
2022-08-25T10:46:27.947Z,50.30
2022-08-25T10:48:59.487Z,50.20
2022-08-25T10:51:12.612Z,49.90
2022-08-25T10:53:42.624Z,49.60
2022-08-25T10:55:57.855Z,49.80
2022-08-25T10:58:17.450Z,49.60
2022-08-25T11:00:22.695Z,49.60
2022-08-25T11:02:54.546Z,49.10
2022-08-25T11:05:06.895Z,49.30
2022-08-25T11:07:16.745Z,49.10
2022-08-25T11:09:26.751Z,49.30
2022-08-25T11:11:36.225Z,49.20
2022-08-25T11:13:43.517Z,48.60
2022-08-25T11:16:16.045Z,49.50
2022-08-25T11:18:18.590Z,49.10
2022-08-25T11:20:30.008Z,49.80
2022-08-25T11:22:39.937Z,49.90
2022-08-25T11:24:57.373Z,49.70
2022-08-25T11:27:05.965Z,49.10
2022-08-25T11:29:14.635Z,49.10
2022-08-25T11:31:22.752Z,49.00
2022-08-25T11:33:29.934Z,48.90
2022-08-25T11:35:40.135Z,49.00
2022-08-25T11:38:05.267Z,49.70
2022-08-25T11:40:27.915Z,49.50
2022-08-25T11:42:45.726Z,49.90
2022-08-25T11:45:00.013Z,49.20
2022-08-25T11:47:30.191Z,49.20
2022-08-25T11:49:59.845Z,49.20
2022-08-25T11:52:10.840Z,49.40
2022-08-25T11:54:22.798Z,49.50
2022-08-25T11:56:35.350Z,49.60
2022-08-25T11:58:46.422Z,49.30
2022-08-25T12:00:51.052Z,49.40
2022-08-25T12:02:58.441Z,49.60
2022-08-25T12:05:08.293Z,49.80
2022-08-25T12:08:23.219Z,49.60
2022-08-25T12:10:57.079Z,49.40
2022-08-25T12:13:27.321Z,50.00
2022-08-25T12:15:55.138Z,49.30
2022-08-25T12:18:15.268Z,49.40
2022-08-25T12:20:19.922Z,50.50
2022-08-25T12:22:51.619Z,49.80
2022-08-25T12:25:03.587Z,49.50
2022-08-25T12:27:13.462Z,49.40
2022-08-25T12:29:26.385Z,49.30
2022-08-25T12:32:07.237Z,49.50
2022-08-25T12:34:32.432Z,49.90
2022-08-25T12:36:37.154Z,49.60
2022-08-25T12:38:52.097Z,49.30
2022-08-25T12:41:03.892Z,49.70
2022-08-25T12:43:24.870Z,49.10
2022-08-25T12:45:42.717Z,49.20
2022-08-25T12:47:48.982Z,49.40
2022-08-25T12:49:53.408Z,50.00
2022-08-25T12:52:03.296Z,50.20
2022-08-25T12:54:19.090Z,49.80
2022-08-25T12:56:32.060Z,50.00
2022-08-25T12:59:00.453Z,49.80
2022-08-25T13:01:35.155Z,50.00
2022-08-25T13:04:00.530Z,50.00
2022-08-25T13:06:28.230Z,49.40
2022-08-25T13:09:08.351Z,49.60
2022-08-25T13:11:15.685Z,49.80
2022-08-25T13:13:34.627Z,49.60
2022-08-25T13:15:47.036Z,50.10
2022-08-25T13:17:52.956Z,50.10
2022-08-25T13:20:12.669Z,50.10
2022-08-25T13:22:20.889Z,50.00
2022-08-25T13:24:30.436Z,50.30
2022-08-25T13:26:48.242Z,50.10
2022-08-25T13:28:57.995Z,49.90
2022-08-25T13:31:08.347Z,49.90
2022-08-25T13:33:20.246Z,50.20
2022-08-25T13:35:32.323Z,50.10
2022-08-25T13:37:35.945Z,50.40
2022-08-25T13:39:56.146Z,50.30
2022-08-25T13:42:04.917Z,50.40
2022-08-25T13:44:13.096Z,50.40
2022-08-25T13:46:22.375Z,50.40
2022-08-25T13:48:35.450Z,50.40
2022-08-25T13:50:42.651Z,50.90
2022-08-25T13:52:51.180Z,50.70
2022-08-25T13:55:01.112Z,50.50
2022-08-25T13:57:15.954Z,50.30
2022-08-25T13:59:26.956Z,50.50
2022-08-25T14:01:47.191Z,49.60
2022-08-25T14:03:56.695Z,50.30
2022-08-25T14:06:08.535Z,50.60
2022-08-25T14:08:32.919Z,50.70
2022-08-25T14:10:40.933Z,50.80
2022-08-25T14:12:49.609Z,50.90
2022-08-25T14:15:00.374Z,50.90
2022-08-25T14:17:22.305Z,51.00
2022-08-25T14:19:35.626Z,50.50
2022-08-25T14:21:42.057Z,50.60
2022-08-25T14:23:46.846Z,50.40
2022-08-25T14:25:51.904Z,50.90
2022-08-25T14:28:13.550Z,50.60
2022-08-25T14:30:18.399Z,50.70
2022-08-25T14:32:34.917Z,50.90
2022-08-25T14:34:42.780Z,50.70
2022-08-25T14:36:48.411Z,50.90
2022-08-25T14:38:55.045Z,51.10
2022-08-25T14:40:59.856Z,51.10
2022-08-25T14:43:04.157Z,51.40
2022-08-25T14:45:10.098Z,51.50
2022-08-25T14:47:14.554Z,51.20
2022-08-25T14:49:24.706Z,51.40
2022-08-25T14:51:32.058Z,51.30
2022-08-25T14:53:36.681Z,51.20
2022-08-25T14:55:41.121Z,51.40
2022-08-25T14:57:46.305Z,51.60
2022-08-25T14:59:51.089Z,51.80
2022-08-25T15:01:56.771Z,51.30
2022-08-25T15:04:06.513Z,51.30
2022-08-25T15:06:14.859Z,51.20
2022-08-25T15:08:36.989Z,51.60
2022-08-25T15:10:42.198Z,51.70
2022-08-25T15:12:48.201Z,51.90
2022-08-25T15:14:58.321Z,51.60
2022-08-25T15:17:04.053Z,51.70
2022-08-25T15:19:09.827Z,51.70
2022-08-25T15:21:15.884Z,51.10
2022-08-25T15:23:20.491Z,51.30
2022-08-25T15:25:24.872Z,51.40
2022-08-25T15:27:30.986Z,51.60
2022-08-25T15:29:36.524Z,51.50
2022-08-25T15:31:41.514Z,51.50
2022-08-25T15:33:46.602Z,51.70
2022-08-25T15:35:50.867Z,51.70
2022-08-25T15:37:57.602Z,52.10
2022-08-25T15:40:03.535Z,52.20
2022-08-25T15:42:12.389Z,52.30
2022-08-25T15:44:16.636Z,52.20
2022-08-25T15:46:24.015Z,52.10
2022-08-25T15:48:29.251Z,51.90
2022-08-25T15:50:35.257Z,52.20
2022-08-25T15:52:47.534Z,52.20
2022-08-25T15:54:54.248Z,52.10
2022-08-25T15:56:59.874Z,51.70
2022-08-25T15:59:08.543Z,51.80
2022-08-25T16:01:15.078Z,51.70
2022-08-25T16:03:19.631Z,51.70
2022-08-25T16:05:26.082Z,51.70
2022-08-25T16:07:30.652Z,52.00
2022-08-25T16:09:35.945Z,52.10
2022-08-25T16:11:43.712Z,52.30
2022-08-25T16:13:48.379Z,52.20
2022-08-25T16:15:53.195Z,52.40
2022-08-25T16:18:01.417Z,52.70
2022-08-25T16:20:13.967Z,53.00
2022-08-25T16:22:19.016Z,53.00
2022-08-25T16:24:23.980Z,53.20
2022-08-25T16:26:29.025Z,53.40
2022-08-25T16:28:34.831Z,53.70
2022-08-25T16:30:40.185Z,53.90
2022-08-25T16:32:47.553Z,53.90
2022-08-25T16:34:52.120Z,54.10
2022-08-25T16:36:56.328Z,54.40
2022-08-25T16:39:01.463Z,54.50
2022-08-25T16:41:08.907Z,54.90
2022-08-25T16:43:13.778Z,55.20
2022-08-25T16:45:19.779Z,55.40
2022-08-25T16:47:25.262Z,55.70
2022-08-25T16:49:32.152Z,55.90
2022-08-25T16:51:38.574Z,56.10
2022-08-25T16:54:01.054Z,56.40
2022-08-25T16:56:08.536Z,56.70
2022-08-25T16:58:15.260Z,56.80
2022-08-25T17:00:23.965Z,56.80
2022-08-25T17:02:28.690Z,56.90
2022-08-25T17:04:33.048Z,56.80
2022-08-25T17:06:41.069Z,56.80
2022-08-25T17:08:54.161Z,56.90
2022-08-25T17:11:07.262Z,56.90
2022-08-25T17:13:12.985Z,57.10
2022-08-25T17:15:22.471Z,57.00
2022-08-25T17:17:28.130Z,57.00
2022-08-25T17:19:36.015Z,57.30
2022-08-25T17:21:45.171Z,57.30
2022-08-25T17:23:51.333Z,57.50
2022-08-25T17:25:56.239Z,57.70
2022-08-25T17:28:00.444Z,57.80
2022-08-25T17:30:06.704Z,58.00
2022-08-25T17:32:11.407Z,58.00
2022-08-25T17:34:22.472Z,58.20
2022-08-25T17:36:27.966Z,58.30
2022-08-25T17:38:33.994Z,58.20
2022-08-25T17:40:39.288Z,58.30
2022-08-25T17:42:45.036Z,58.70
2022-08-25T17:44:49.637Z,59.00
2022-08-25T17:46:54.592Z,59.10
2022-08-25T17:48:59.347Z,59.20
2022-08-25T17:51:07.566Z,59.40
2022-08-25T17:53:13.373Z,59.50
2022-08-25T17:55:21.632Z,59.50
2022-08-25T17:57:26.276Z,59.50
2022-08-25T17:59:32.590Z,59.50
2022-08-25T18:01:40.328Z,59.50
2022-08-25T18:03:46.157Z,59.70
2022-08-25T18:05:51.124Z,59.70
2022-08-25T18:07:57.987Z,59.90
2022-08-25T18:10:02.662Z,60.00
2022-08-25T18:12:08.111Z,60.00
2022-08-25T18:14:13.994Z,59.90
2022-08-25T18:16:18.551Z,60.00
2022-08-25T18:18:24.217Z,60.00
2022-08-25T18:20:29.599Z,60.00
2022-08-25T18:22:34.153Z,60.00
2022-08-25T18:24:40.628Z,60.30
2022-08-25T18:26:45.078Z,60.50
2022-08-25T18:28:49.513Z,60.80
2022-08-25T18:30:53.890Z,61.00
2022-08-25T18:33:00.034Z,61.00
2022-08-25T18:35:05.473Z,60.90
2022-08-25T18:37:23.672Z,61.60
2022-08-25T18:39:53.592Z,61.00
2022-08-25T18:42:01.162Z,61.10
2022-08-25T18:44:06.690Z,61.10
2022-08-25T18:46:13.861Z,61.10
2022-08-25T18:48:26.513Z,61.50
2022-08-25T18:51:03.231Z,61.70
2022-08-25T18:53:30.349Z,61.80
2022-08-25T18:55:54.474Z,61.80
2022-08-25T18:58:00.588Z,61.90
2022-08-25T19:00:06.455Z,61.80
2022-08-25T19:02:14.241Z,62.00
2022-08-25T19:04:19.258Z,62.30
2022-08-25T19:06:24.086Z,62.60
2022-08-25T19:08:28.632Z,62.50
2022-08-25T19:10:34.755Z,62.70
2022-08-25T19:12:40.690Z,62.80
2022-08-25T19:14:46.419Z,62.70
2022-08-25T19:16:53.963Z,62.80
2022-08-25T19:18:58.521Z,62.70
2022-08-25T19:21:03.598Z,62.50
2022-08-25T19:23:08.945Z,62.80
2022-08-25T19:25:14.101Z,63.00
2022-08-25T19:27:19.392Z,63.10
2022-08-25T19:29:25.490Z,63.00
2022-08-25T19:31:33.198Z,63.00
2022-08-25T19:33:44.152Z,63.10
2022-08-25T19:35:52.153Z,63.00
2022-08-25T19:37:57.945Z,63.20
2022-08-25T19:40:03.192Z,63.20
2022-08-25T19:42:35.275Z,63.40
2022-08-25T19:44:34.303Z,63.60
2022-08-25T19:46:44.202Z,63.70
2022-08-25T19:48:48.622Z,63.90
2022-08-25T19:50:55.988Z,64.00
2022-08-25T19:53:00.765Z,64.20
2022-08-25T19:55:06.544Z,64.20
2022-08-25T19:57:12.001Z,64.50
2022-08-25T19:59:17.666Z,64.70
2022-08-25T20:01:21.970Z,64.90
2022-08-25T20:03:27.856Z,64.80
2022-08-25T20:05:33.467Z,64.90
2022-08-25T20:07:37.835Z,65.00
2022-08-25T20:09:42.773Z,64.80
2022-08-25T20:11:49.616Z,65.10
2022-08-25T20:13:54.589Z,65.30
2022-08-25T20:15:59.128Z,65.40
2022-08-25T20:18:04.489Z,65.20
2022-08-25T20:20:16.676Z,65.30
2022-08-25T20:22:27.097Z,65.30
2022-08-25T20:24:56.115Z,65.40
2022-08-25T20:27:02.041Z,65.60
2022-08-25T20:29:06.324Z,65.70
2022-08-25T20:31:10.722Z,65.60
2022-08-25T20:33:22.580Z,65.70
2022-08-25T20:35:29.748Z,65.50
2022-08-25T20:37:34.179Z,65.50
2022-08-25T20:39:39.611Z,66.00
2022-08-25T20:41:44.210Z,66.00
2022-08-25T20:43:55.614Z,66.40
2022-08-25T20:46:02.167Z,66.70
2022-08-25T20:48:07.436Z,66.90
2022-08-25T20:50:13.168Z,67.00
2022-08-25T20:52:22.114Z,66.60
2022-08-25T20:54:30.039Z,66.70
2022-08-25T20:56:35.445Z,67.00
2022-08-25T20:58:41.502Z,67.00
2022-08-25T21:00:51.543Z,67.10
2022-08-25T21:02:57.146Z,67.20
2022-08-25T21:05:02.134Z,66.90
2022-08-25T21:07:09.975Z,66.80
2022-08-25T21:09:17.476Z,67.10
2022-08-25T21:11:22.918Z,67.20
2022-08-25T21:13:27.733Z,67.40
2022-08-25T21:15:49.483Z,67.30
2022-08-25T21:18:20.149Z,67.70
2022-08-25T21:20:34.625Z,67.80
2022-08-25T21:22:49.358Z,68.00
2022-08-25T21:24:56.130Z,67.90
2022-08-25T21:27:00.982Z,67.90
2022-08-25T21:29:24.580Z,68.10
2022-08-25T21:31:53.581Z,68.20
2022-08-25T21:34:00.548Z,68.30
2022-08-25T21:36:05.448Z,68.00
2022-08-25T21:38:16.981Z,68.00
2022-08-25T21:40:31.576Z,67.80
2022-08-25T21:44:57.453Z,67.80
2022-08-25T21:47:06.874Z,67.80
2022-08-25T21:49:20.335Z,67.90
2022-08-25T21:51:30.513Z,68.30
2022-08-25T21:53:34.933Z,68.50
2022-08-25T21:55:41.919Z,68.40
2022-08-25T21:57:46.426Z,68.60
2022-08-25T21:59:50.687Z,68.60
2022-08-25T22:01:57.129Z,68.60
2022-08-25T22:04:02.247Z,68.80
2022-08-25T22:06:08.629Z,69.20
2022-08-25T22:08:13.193Z,69.40
2022-08-25T22:10:17.894Z,69.70
2022-08-25T22:12:24.996Z,69.20
2022-08-25T22:14:29.539Z,68.70
2022-08-25T22:16:34.956Z,69.10
2022-08-25T22:18:39.641Z,69.00
2022-08-25T22:20:46.707Z,69.00
2022-08-25T22:22:51.044Z,69.20
2022-08-25T22:24:56.032Z,69.30
2022-08-25T22:27:00.469Z,69.60
2022-08-25T22:29:07.890Z,69.80
2022-08-25T22:31:14.958Z,69.70
2022-08-25T22:33:25.596Z,70.00
2022-08-25T22:35:33.341Z,70.00
2022-08-25T22:37:37.646Z,70.30
2022-08-25T22:39:41.976Z,70.60
2022-08-25T22:41:47.389Z,70.80
2022-08-25T22:43:53.361Z,70.90
2022-08-25T22:46:03.921Z,71.00
2022-08-25T22:48:08.818Z,70.90
2022-08-25T22:50:13.864Z,70.40
2022-08-25T22:52:21.473Z,70.70
2022-08-25T22:54:38.066Z,70.70
2022-08-25T22:56:42.886Z,70.80
2022-08-25T22:58:51.809Z,70.70
2022-08-25T23:00:56.893Z,71.00
2022-08-25T23:03:03.115Z,71.50
2022-08-25T23:05:13.468Z,70.30
2022-08-25T23:07:18.693Z,71.10
2022-08-25T23:09:24.754Z,71.20
2022-08-25T23:11:29.361Z,70.80
2022-08-25T23:13:34.689Z,71.00
2022-08-25T23:15:45.210Z,70.30
2022-08-25T23:17:50.177Z,70.40
2022-08-25T23:19:56.117Z,70.50
2022-08-25T23:22:16.222Z,70.40
2022-08-25T23:24:29.242Z,70.60
2022-08-25T23:26:35.524Z,70.80
2022-08-25T23:28:41.433Z,70.60
2022-08-25T23:30:47.665Z,70.70
2022-08-25T23:33:02.108Z,70.50
2022-08-25T23:35:09.902Z,70.30
2022-08-25T23:37:14.563Z,70.10
2022-08-25T23:39:21.708Z,70.10
2022-08-25T23:41:27.636Z,69.40
2022-08-25T23:43:33.659Z,69.40
2022-08-25T23:45:38.978Z,69.00
2022-08-25T23:47:43.734Z,68.90
2022-08-25T23:49:49.373Z,68.40
2022-08-25T23:51:56.672Z,68.20
2022-08-25T23:54:04.180Z,68.20
2022-08-25T23:56:08.612Z,68.50
2022-08-25T23:58:13.908Z,68.60
